map of EUX home
EUX - Airport
Location
City:  Oranjestad, Sint Eustatius, Bonaire/Sint Eustatius/Saba
Near (Alt.):Statia
Name:F.D. Roosevelt
ICAO:TNCE
IATA:EUX

Details
Type:Airport (Aerodrome, Airfield)
Latitude:1729'47"N (17.496492)
Longitude:6258'46"W (-62.979438)
Datum:WGS 1984
Elevation:129 ft (39 m)
Variation:14.33W (WMM2015 magnetic declination)
-0.03 annual change
Runways:1
Longest:4265 × 100 ft (1300 × 30.5 m), paved

Time
Time Zone:UTC-4
Local Time:

Weather
METAR:TNCE 070755Z AUTO 06012KT 020V100 //// // ///////// 26/23 Q1015 RE//

Related Locations
Nearby:
Farthest:WHM: 12211 mi / 19652 km
Wickham, WA, AU

Find:

   beyond  
but within

Other Information
Maps:
NOTAMs:
Sources:

  
flag of Bonaire/Sint Eustatius/Saba
flag of Sint Eustatius
  

Sectional Chart

Flight Planning
at skyvector.com

Satellite Image

Google Maps Satellite view

 

Copyright © 2004-2016 Karl L. Swartz. All rights reserved.
The Great Circle Mapper name and logo are trademarks of the Great Circle Mapper.
All other trademarks mentioned herein belong to their respective owners.
Please see credits for attibutions and further copyright information.

  Follow gcmap on Facebook Follow gcmap on Twitter Follow gcmap on Google+ GCmap on LinkedIn

hCard Microformat

Geo Microformat